Погода Колоницына неделю

Витебская область, Белоруссия

24 - 30 мая
  • 24мая
    Сегодня
    +11°
    +24°
    Ясно и безоблачно
    ВремяПогодаТемператураВлажностьДавлениеВетер, м/сВероятность осадков
    00:00Практически безоблачно+16°C80 %755 мм3.2 м/с2 %
    03:00Практически безоблачно+14°C64 %756 мм3.8 м/с2 %
    06:00Ясно и безоблачно+13°C68 %757 мм3.8 м/с2 %
    09:00Ясно и безоблачно+17°C61 %757 мм4.2 м/с2 %
    12:00Ясно и безоблачно+22°C46 %758 мм4.8 м/с2 %
    15:00Ясно и безоблачно+24°C43 %757 мм4.6 м/с2 %
    18:00Ясно и безоблачно+23°C44 %756 мм4.2 м/с2 %
    21:00Ясно и безоблачно+19°C58 %756 мм3.5 м/с2 %
  • 25мая
    Суббота
    +11°
    +25°
    Практически безоблачно
    ВремяПогодаТемператураВлажностьДавлениеВетер, м/сВероятность осадков
    00:00Ясно и безоблачно+15°C63 %757 мм3.7 м/с2 %
    03:00Ясно и безоблачно+13°C68 %756 мм3.0 м/с2 %
    06:00Ясно и безоблачно+12°C72 %756 мм3.0 м/с2 %
    09:00Ясно и безоблачно+18°C62 %756 мм2.8 м/с2 %
    12:00Ясно и безоблачно+23°C50 %756 мм2.7 м/с1 %
    15:00Практически безоблачно+25°C40 %755 мм3.0 м/с5 %
    18:00Небольшая облачность+24°C44 %755 мм2.9 м/с20 %
    21:00Ясно и безоблачно+19°C67 %755 мм1.8 м/с7 %
  • 26мая
    Воскресенье
    +12°
    +25°
    Практически безоблачно
    ВремяПогодаТемператураВлажностьДавлениеВетер, м/сВероятность осадков
    00:00Ясно и безоблачно+16°C76 %755 мм1.1 м/с2 %
    03:00Ясно и безоблачно+12°C87 %755 мм2.6 м/с2 %
    06:00Ясно и безоблачно+13°C86 %755 мм1.5 м/с2 %
    09:00Ясно и безоблачно+19°C61 %756 мм1.1 м/с2 %
    12:00Практически безоблачно+24°C41 %756 мм0.5 м/с2 %
    15:00Практически безоблачно+25°C38 %755 мм1.0 м/с2 %
    18:00Практически безоблачно+25°C36 %755 мм0.7 м/с2 %
    21:00Практически безоблачно+20°C66 %755 мм2.1 м/с2 %
  • 27мая
    Понедельник
    +11°
    +26°
    Практически безоблачно
    ВремяПогодаТемператураВлажностьДавлениеВетер, м/сВероятность осадков
    00:00Ясно и безоблачно+16°C80 %755 мм2.3 м/с2 %
    03:00Ясно и безоблачно+12°C88 %755 мм2.2 м/с2 %
    06:00Ясно и безоблачно+14°C84 %756 мм2.0 м/с2 %
    09:00Практически безоблачно+20°C70 %756 мм2.1 м/с2 %
    12:00Ясно и безоблачно+24°C52 %756 мм2.2 м/с7 %
    15:00Практически безоблачно+25°C49 %756 мм1.4 м/с10 %
    18:00Практически безоблачно+24°C64 %755 мм3.1 м/с17 %
    21:00Ясно и безоблачно+21°C78 %755 мм1.4 м/с3 %
Мы используем cookies
Соглашаюсь